createdAt,value
2022-08-03T00:00:24.225Z,92966.94
2022-08-03T00:02:50.824Z,92966.31
2022-08-03T00:05:17.365Z,92971.56
2022-08-03T00:07:43.914Z,92973.56
2022-08-03T00:10:12.597Z,92966.06
2022-08-03T00:12:39.142Z,92964.63
2022-08-03T00:15:10.423Z,92964.63
2022-08-03T00:17:51.981Z,92964.25
2022-08-03T00:20:19.791Z,92968.00
2022-08-03T00:22:46.507Z,92959.03
2022-08-03T00:25:13.015Z,92959.03
2022-08-03T00:27:39.501Z,92963.88
2022-08-03T00:30:07.240Z,92965.88
2022-08-03T00:32:33.852Z,92957.13
2022-08-03T00:35:00.359Z,92958.97
2022-08-03T00:37:40.628Z,92960.69
2022-08-03T00:40:10.669Z,92957.81
2022-08-03T00:42:47.156Z,92961.09
2022-08-03T00:45:13.630Z,92961.56
2022-08-03T00:47:40.141Z,92956.25
2022-08-03T00:50:06.914Z,92960.59
2022-08-03T00:52:34.823Z,92953.94
2022-08-03T00:55:03.053Z,92947.19
2022-08-03T00:57:32.105Z,92952.03
2022-08-03T01:00:02.478Z,92952.63
2022-08-03T01:02:29.484Z,92955.56
2022-08-03T01:04:56.472Z,92946.91
2022-08-03T01:07:41.355Z,92950.50
2022-08-03T01:10:24.198Z,92947.53
2022-08-03T01:14:01.675Z,92955.81
2022-08-03T01:16:15.487Z,92944.03
2022-08-03T01:19:02.455Z,92957.88
2022-08-03T01:21:33.940Z,92945.13
2022-08-03T01:24:42.445Z,92943.03
2022-08-03T01:27:17.846Z,92941.47
2022-08-03T01:30:03.965Z,92936.63
2022-08-03T01:32:58.714Z,92939.41
2022-08-03T01:35:38.606Z,92937.84
2022-08-03T01:38:15.402Z,92934.63
2022-08-03T01:40:44.563Z,92935.97
2022-08-03T01:43:15.442Z,92942.88
2022-08-03T01:46:04.128Z,92944.06
2022-08-03T01:52:40.493Z,92929.13
2022-08-03T01:55:09.901Z,92926.19
2022-08-03T01:58:04.822Z,92932.47
2022-08-03T02:00:27.021Z,92928.53
2022-08-03T02:02:56.042Z,92925.75
2022-08-03T02:05:23.681Z,92928.31
2022-08-03T02:07:51.664Z,92927.25
2022-08-03T02:10:34.917Z,92931.47
2022-08-03T02:13:04.071Z,92930.09
2022-08-03T02:15:33.453Z,92924.03
2022-08-03T02:18:01.981Z,92925.38
2022-08-03T02:20:29.686Z,92928.16
2022-08-03T02:22:56.185Z,92924.22
2022-08-03T02:25:23.565Z,92920.88
2022-08-03T02:27:55.613Z,92920.38
2022-08-03T02:30:29.672Z,92923.63
2022-08-03T02:32:57.904Z,92924.72
2022-08-03T02:35:26.410Z,92919.41
2022-08-03T02:38:01.301Z,92918.91
2022-08-03T02:40:29.287Z,92915.28
2022-08-03T02:42:59.643Z,92921.16
2022-08-03T02:45:28.743Z,92917.03
2022-08-03T02:48:04.137Z,92909.19
2022-08-03T02:50:32.114Z,92918.22
2022-08-03T02:52:59.707Z,92915.75
2022-08-03T02:55:27.367Z,92906.06
2022-08-03T02:57:55.551Z,92911.63
2022-08-03T03:00:27.412Z,92913.91
2022-08-03T03:02:56.848Z,92905.47
2022-08-03T03:05:54.712Z,92910.75
2022-08-03T03:08:18.500Z,92904.66
2022-08-03T03:10:46.559Z,92903.56
2022-08-03T03:13:15.886Z,92903.38
2022-08-03T03:15:44.965Z,92901.78
2022-08-03T03:18:12.924Z,92903.19
2022-08-03T03:20:40.889Z,92902.69
2022-08-03T03:23:11.994Z,92896.09
2022-08-03T03:25:38.687Z,92907.78
2022-08-03T03:28:06.761Z,92902.00
2022-08-03T03:30:34.193Z,92900.63
2022-08-03T03:33:00.866Z,92904.94
2022-08-03T03:35:27.864Z,92912.97
2022-08-03T03:37:54.603Z,92912.19
2022-08-03T03:40:21.957Z,92909.84
2022-08-03T03:42:49.575Z,92902.16
2022-08-03T03:45:19.538Z,92912.59
2022-08-03T03:47:46.433Z,92912.38
2022-08-03T03:50:13.154Z,92918.44
2022-08-03T03:52:39.751Z,92907.84
2022-08-03T03:55:06.815Z,92916.97
2022-08-03T03:57:34.406Z,92905.88
2022-08-03T04:00:00.896Z,92915.59
2022-08-03T04:02:27.587Z,92905.28
2022-08-03T04:05:12.906Z,92909.81
2022-08-03T04:08:10.466Z,92911.38
2022-08-03T04:10:59.872Z,92907.22
2022-08-03T04:13:34.106Z,92913.31
2022-08-03T04:16:01.843Z,92906.53
2022-08-03T04:18:31.321Z,92909.72
2022-08-03T04:21:01.511Z,92910.53
2022-08-03T04:23:30.729Z,92909.22
2022-08-03T04:26:00.448Z,92912.97
2022-08-03T04:28:31.052Z,92917.50
2022-08-03T04:31:01.354Z,92919.91
2022-08-03T04:33:31.326Z,92916.78
2022-08-03T04:36:03.192Z,92916.78
2022-08-03T04:38:36.618Z,92921.00
2022-08-03T04:41:03.772Z,92924.63
2022-08-03T04:43:33.464Z,92923.56
2022-08-03T04:46:01.447Z,92926.69
2022-08-03T04:48:28.482Z,92923.50
2022-08-03T04:50:55.093Z,92925.06
2022-08-03T04:53:21.730Z,92929.28
2022-08-03T04:55:48.382Z,92930.31
2022-08-03T04:58:14.886Z,92927.88
2022-08-03T05:00:42.277Z,92938.47
2022-08-03T05:03:20.468Z,92933.44
2022-08-03T05:06:09.945Z,92931.19
2022-08-03T05:08:46.277Z,92935.13
2022-08-03T05:11:16.599Z,92942.22
2022-08-03T05:13:44.146Z,92942.34
2022-08-03T05:16:11.860Z,92937.75
2022-08-03T05:18:38.364Z,92937.66
2022-08-03T05:21:05.061Z,92942.66
2022-08-03T05:23:31.822Z,92940.69
2022-08-03T05:25:58.343Z,92933.94
2022-08-03T05:28:24.882Z,92936.19
2022-08-03T05:30:51.400Z,92931.88
2022-08-03T05:33:17.904Z,92929.13
2022-08-03T05:36:01.382Z,92938.66
2022-08-03T05:38:34.809Z,92937.28
2022-08-03T05:41:21.187Z,92936.00
2022-08-03T05:43:49.970Z,92942.91
2022-08-03T05:46:16.509Z,92938.19
2022-08-03T05:48:43.450Z,92934.81
2022-08-03T05:51:11.844Z,92937.69
2022-08-03T05:53:42.540Z,92937.94
2022-08-03T05:56:13.651Z,92939.16
2022-08-03T05:58:44.040Z,92943.28
2022-08-03T06:01:10.632Z,92941.50
2022-08-03T06:03:37.249Z,92936.59
2022-08-03T06:06:03.926Z,92935.56
2022-08-03T06:08:30.419Z,92930.63
2022-08-03T06:10:56.942Z,92942.69
2022-08-03T06:13:23.469Z,92929.31
2022-08-03T06:15:50.072Z,92932.94
2022-08-03T06:18:16.670Z,92934.88
2022-08-03T06:20:43.329Z,92936.97
2022-08-03T06:23:16.121Z,92936.56
2022-08-03T06:25:44.883Z,92938.50
2022-08-03T06:31:02.006Z,92936.63
2022-08-03T06:34:31.325Z,92937.16
2022-08-03T06:36:15.643Z,92940.66
2022-08-03T06:38:42.306Z,92937.72
2022-08-03T06:41:08.844Z,92931.84
2022-08-03T06:43:37.655Z,92940.81
2022-08-03T06:46:05.459Z,92936.28
2022-08-03T06:48:32.528Z,92939.63
2022-08-03T06:50:59.258Z,92937.47
2022-08-03T06:53:25.875Z,92944.25
2022-08-03T06:55:55.028Z,92940.97
2022-08-03T06:58:22.541Z,92942.41
2022-08-03T07:00:49.389Z,92945.22
2022-08-03T07:03:16.408Z,92938.94
2022-08-03T07:05:43.510Z,92947.56
2022-08-03T07:08:10.338Z,92948.53
2022-08-03T07:10:37.209Z,92953.69
2022-08-03T07:13:04.855Z,92951.16
2022-08-03T07:15:54.361Z,92957.09
2022-08-03T07:18:18.182Z,92953.75
2022-08-03T07:20:56.878Z,92951.22
2022-08-03T07:23:23.402Z,92948.97
2022-08-03T07:25:50.811Z,92951.94
2022-08-03T07:28:17.786Z,92950.34
2022-08-03T07:30:44.380Z,92949.78
2022-08-03T07:33:11.181Z,92957.63
2022-08-03T07:35:37.753Z,92940.63
2022-08-03T07:38:05.425Z,92954.69
2022-08-03T07:40:32.563Z,92943.84
2022-08-03T07:43:00.158Z,92946.63
2022-08-03T07:45:27.065Z,92949.09
2022-08-03T07:47:54.316Z,92952.06
2022-08-03T07:50:21.812Z,92945.09
2022-08-03T07:52:48.661Z,92951.47
2022-08-03T07:55:23.334Z,92948.31
2022-08-03T07:58:24.009Z,92945.03
2022-08-03T08:00:53.003Z,92943.53
2022-08-03T08:03:19.945Z,92944.88
2022-08-03T08:05:46.741Z,92945.59
2022-08-03T08:08:13.271Z,92946.41
2022-08-03T08:10:39.868Z,92943.06
2022-08-03T08:13:06.469Z,92938.59
2022-08-03T08:15:33.090Z,92944.09
2022-08-03T08:18:01.286Z,92939.63
2022-08-03T08:20:31.720Z,92942.69
2022-08-03T08:23:12.154Z,92945.63
2022-08-03T08:25:51.979Z,92931.88
2022-08-03T08:28:29.508Z,92940.16
2022-08-03T08:30:59.140Z,92943.38
2022-08-03T08:33:25.899Z,92945.88
2022-08-03T08:35:53.433Z,92939.28
2022-08-03T08:38:20.104Z,92940.28
2022-08-03T08:40:47.689Z,92939.81
2022-08-03T08:43:14.200Z,92949.53
2022-08-03T08:45:41.527Z,92946.63
2022-08-03T08:48:10.610Z,92945.31
2022-08-03T08:50:38.715Z,92944.75
2022-08-03T08:53:09.824Z,92940.28
2022-08-03T08:55:59.131Z,92946.53
2022-08-03T08:58:29.657Z,92941.28
2022-08-03T09:00:56.200Z,92935.63
2022-08-03T09:03:30.404Z,92939.22
2022-08-03T09:06:00.423Z,92943.47
2022-08-03T09:08:26.934Z,92948.28
2022-08-03T09:10:53.454Z,92946.34
2022-08-03T09:13:19.965Z,92940.66
2022-08-03T09:16:00.712Z,92934.25
2022-08-03T09:18:32.309Z,92944.84
2022-08-03T09:21:30.800Z,92941.78
2022-08-03T09:24:02.946Z,92941.56
2022-08-03T09:26:31.309Z,92950.50
2022-08-03T09:29:11.232Z,92940.25
2022-08-03T09:31:43.046Z,92936.50
2022-08-03T09:34:16.310Z,92941.56
2022-08-03T09:36:45.664Z,92939.03
2022-08-03T09:39:19.702Z,92942.63
2022-08-03T09:42:09.171Z,92942.94
2022-08-03T09:44:43.461Z,92936.56
2022-08-03T09:47:12.460Z,92936.97
2022-08-03T09:49:41.571Z,92938.19
2022-08-03T09:52:32.193Z,92941.41
2022-08-03T09:56:30.971Z,92937.00
2022-08-03T09:58:05.906Z,92937.94
2022-08-03T10:00:32.588Z,92930.44
2022-08-03T10:03:05.219Z,92931.47
2022-08-03T10:05:33.199Z,92928.78
2022-08-03T10:07:59.674Z,92932.16
2022-08-03T10:10:31.740Z,92929.72
2022-08-03T10:13:00.266Z,92936.28
2022-08-03T10:16:24.079Z,92931.47
2022-08-03T10:18:14.251Z,92923.59
2022-08-03T10:20:53.379Z,92920.63
2022-08-03T10:23:20.114Z,92918.50
2022-08-03T10:25:48.448Z,92922.19
2022-08-03T10:28:19.369Z,92912.47
2022-08-03T10:30:51.155Z,92914.81
2022-08-03T10:33:51.695Z,92918.03
2022-08-03T10:36:18.282Z,92906.84
2022-08-03T10:38:52.691Z,92907.56
2022-08-03T10:41:26.619Z,92907.22
2022-08-03T10:43:58.583Z,92903.88
2022-08-03T10:46:27.280Z,92908.06
2022-08-03T10:48:56.527Z,92904.88
2022-08-03T10:51:24.093Z,92903.00
2022-08-03T10:53:55.290Z,92897.63
2022-08-03T10:56:53.441Z,92903.69
2022-08-03T10:59:45.528Z,92895.44
2022-08-03T11:02:14.150Z,92894.97
2022-08-03T11:04:41.841Z,92894.63
2022-08-03T11:07:21.737Z,92897.97
2022-08-03T11:09:50.152Z,92893.88
2022-08-03T11:12:30.101Z,92887.81
2022-08-03T11:15:08.555Z,92888.44
2022-08-03T11:17:46.150Z,92891.72
2022-08-03T11:20:57.490Z,92882.41
2022-08-03T11:24:05.648Z,92875.56
2022-08-03T11:26:33.992Z,92875.63
2022-08-03T11:29:53.674Z,92876.06
2022-08-03T11:32:38.650Z,92882.22
2022-08-03T11:35:24.087Z,92877.59
2022-08-03T11:38:05.072Z,92872.66
2022-08-03T11:40:46.193Z,92878.53
2022-08-03T11:43:31.595Z,92868.94
2022-08-03T11:45:59.777Z,92869.41
2022-08-03T11:48:38.187Z,92871.00
2022-08-03T11:51:07.122Z,92883.78
2022-08-03T11:53:42.041Z,92878.41
2022-08-03T11:56:12.957Z,92862.91
2022-08-03T11:59:01.689Z,92867.59
2022-08-03T12:01:43.468Z,92870.69
2022-08-03T12:04:11.430Z,92869.13
2022-08-03T12:06:55.761Z,92867.59
2022-08-03T12:09:22.522Z,92859.81
2022-08-03T12:11:59.616Z,92863.72
2022-08-03T12:14:49.729Z,92863.28
2022-08-03T12:17:16.123Z,92861.34
2022-08-03T12:19:43.506Z,92858.19
2022-08-03T12:22:10.307Z,92861.63
2022-08-03T12:24:46.868Z,92858.94
2022-08-03T12:27:23.555Z,92854.34
2022-08-03T12:29:58.975Z,92849.25
2022-08-03T12:32:29.531Z,92843.38
2022-08-03T12:35:01.024Z,92846.84
2022-08-03T12:37:28.607Z,92841.69
2022-08-03T12:40:07.899Z,92852.47
2022-08-03T12:42:38.836Z,92841.47
2022-08-03T12:45:22.123Z,92848.00
2022-08-03T12:48:00.990Z,92841.94
2022-08-03T12:50:32.004Z,92843.28
2022-08-03T12:53:00.402Z,92839.72
2022-08-03T12:55:57.061Z,92836.78
2022-08-03T12:58:35.000Z,92835.25
2022-08-03T13:01:05.182Z,92828.31
2022-08-03T13:03:49.965Z,92828.41
2022-08-03T13:06:22.154Z,92836.38
2022-08-03T13:08:49.979Z,92830.28
2022-08-03T13:11:23.476Z,92835.56
2022-08-03T13:14:10.031Z,92833.44
2022-08-03T13:16:43.223Z,92822.09
2022-08-03T13:19:15.729Z,92828.19
2022-08-03T13:21:53.627Z,92832.47
2022-08-03T13:24:30.585Z,92837.31
2022-08-03T13:26:58.768Z,92821.47
2022-08-03T13:29:25.291Z,92817.47
2022-08-03T13:31:52.509Z,92816.59
2022-08-03T13:34:22.923Z,92810.28
2022-08-03T13:39:57.795Z,92813.28
2022-08-03T13:42:25.740Z,92816.88
2022-08-03T13:44:52.391Z,92814.41
2022-08-03T13:47:19.653Z,92814.94
2022-08-03T13:49:59.803Z,92801.81
2022-08-03T13:52:33.533Z,92797.03
2022-08-03T13:55:01.358Z,92791.47
2022-08-03T13:58:03.796Z,92796.25
2022-08-03T14:00:27.895Z,92797.91
2022-08-03T14:03:09.499Z,92801.41
2022-08-03T14:05:40.226Z,92793.06
2022-08-03T14:08:07.360Z,92793.63
2022-08-03T14:10:36.332Z,92793.56
2022-08-03T14:13:04.030Z,92792.19
2022-08-03T14:15:30.682Z,92789.47
2022-08-03T14:17:58.398Z,92790.13
2022-08-03T14:20:37.150Z,92787.34
2022-08-03T14:23:06.873Z,92788.72
2022-08-03T14:25:43.266Z,92778.72
2022-08-03T14:28:17.954Z,92772.97
2022-08-03T14:30:44.628Z,92775.66
2022-08-03T14:33:11.110Z,92775.72
2022-08-03T14:35:37.637Z,92776.91
2022-08-03T14:38:04.169Z,92779.34
2022-08-03T14:40:30.669Z,92774.91
2022-08-03T14:42:57.327Z,92779.38
2022-08-03T14:45:23.893Z,92772.41
2022-08-03T14:50:32.674Z,92773.72
2022-08-03T14:50:43.174Z,92766.34
2022-08-03T14:53:12.582Z,92774.69
2022-08-03T14:55:50.075Z,92773.94
2022-08-03T14:58:22.436Z,92766.56
2022-08-03T15:00:50.546Z,92773.91
2022-08-03T15:03:20.462Z,92765.97
2022-08-03T15:05:47.204Z,92771.66
2022-08-03T15:08:13.707Z,92772.53
2022-08-03T15:10:43.950Z,92776.16
2022-08-03T15:13:15.079Z,92773.63
2022-08-03T15:15:41.858Z,92765.75
2022-08-03T15:18:09.460Z,92770.72
2022-08-03T15:20:44.400Z,92768.94
2022-08-03T15:23:14.016Z,92762.88
2022-08-03T15:26:28.903Z,92759.09
2022-08-03T15:28:27.147Z,92764.63
2022-08-03T15:30:53.842Z,92759.31
2022-08-03T15:33:20.627Z,92758.94
2022-08-03T15:35:47.659Z,92758.66
2022-08-03T15:38:14.658Z,92752.13
2022-08-03T15:40:41.238Z,92750.22
2022-08-03T15:43:08.015Z,92756.00
2022-08-03T15:45:35.311Z,92754.03
2022-08-03T15:48:05.482Z,92751.75
2022-08-03T15:50:32.040Z,92757.94
2022-08-03T15:53:01.418Z,92753.28
2022-08-03T15:55:28.038Z,92749.41
2022-08-03T15:59:03.267Z,92750.16
2022-08-03T16:00:42.606Z,92743.22
2022-08-03T16:03:09.734Z,92737.03
2022-08-03T16:05:36.618Z,92738.81
2022-08-03T16:08:05.125Z,92739.09
2022-08-03T16:10:33.645Z,92736.75
2022-08-03T16:13:00.446Z,92741.22
2022-08-03T16:15:27.633Z,92732.50
2022-08-03T16:17:54.382Z,92731.13
2022-08-03T16:20:33.972Z,92731.97
2022-08-03T16:23:11.072Z,92742.16
2022-08-03T16:25:42.428Z,92740.63
2022-08-03T16:28:14.190Z,92731.75
2022-08-03T16:30:43.093Z,92732.75
2022-08-03T16:33:11.229Z,92741.38
2022-08-03T16:35:38.413Z,92736.72
2022-08-03T16:38:09.739Z,92729.84
2022-08-03T16:40:37.784Z,92740.47
2022-08-03T16:43:18.379Z,92736.25
2022-08-03T16:45:46.560Z,92732.44
2022-08-03T16:48:14.521Z,92724.06
2022-08-03T16:50:41.246Z,92724.88
2022-08-03T16:53:09.602Z,92726.88
2022-08-03T16:55:48.728Z,92721.88
2022-08-03T16:58:19.555Z,92728.06
2022-08-03T17:01:01.685Z,92726.50
2022-08-03T17:03:42.685Z,92731.16
2022-08-03T17:06:25.430Z,92727.28
2022-08-03T17:09:00.603Z,92728.06
2022-08-03T17:11:27.223Z,92734.63
2022-08-03T17:13:59.434Z,92728.75
2022-08-03T17:16:26.187Z,92726.47
2022-08-03T17:19:01.961Z,92731.91
2022-08-03T17:21:32.441Z,92729.56
2022-08-03T17:24:12.537Z,92729.88
2022-08-03T17:26:45.998Z,92738.00
2022-08-03T17:29:23.138Z,92731.78
2022-08-03T17:31:53.006Z,92726.72
2022-08-03T17:34:20.756Z,92726.34
2022-08-03T17:37:11.978Z,92734.88
2022-08-03T17:39:58.097Z,92728.72
2022-08-03T17:42:30.242Z,92732.16
2022-08-03T17:44:58.589Z,92732.97
2022-08-03T17:47:41.404Z,92725.63
2022-08-03T17:50:25.302Z,92737.63
2022-08-03T17:53:07.181Z,92738.81
2022-08-03T17:55:56.496Z,92739.97
2022-08-03T17:58:43.892Z,92738.03
2022-08-03T18:02:02.673Z,92741.16
2022-08-03T18:04:29.770Z,92742.72
2022-08-03T18:06:59.455Z,92743.59
2022-08-03T18:10:05.183Z,92746.72
2022-08-03T18:12:27.048Z,92745.53
2022-08-03T18:15:01.469Z,92748.63
2022-08-03T18:17:55.200Z,92752.13
2022-08-03T18:20:34.813Z,92758.34
2022-08-03T18:23:08.649Z,92754.06
2022-08-03T18:25:45.502Z,92749.75
2022-08-03T18:28:18.486Z,92752.81
2022-08-03T18:30:54.277Z,92747.00
2022-08-03T18:34:16.660Z,92750.81
2022-08-03T18:36:21.653Z,92753.84
2022-08-03T18:38:58.477Z,92750.72
2022-08-03T18:41:32.979Z,92753.38
2022-08-03T18:44:07.181Z,92750.22
2022-08-03T18:47:02.934Z,92761.72
2022-08-03T18:49:43.294Z,92759.25
2022-08-03T18:52:21.560Z,92760.75
2022-08-03T18:55:19.754Z,92761.00
2022-08-03T18:58:06.841Z,92764.38
2022-08-03T19:00:54.042Z,92759.97
2022-08-03T19:03:43.455Z,92756.47
2022-08-03T19:06:20.297Z,92765.28
2022-08-03T19:09:02.808Z,92771.03
2022-08-03T19:12:14.066Z,92773.22
2022-08-03T19:14:34.293Z,92779.94
2022-08-03T19:17:07.601Z,92779.69
2022-08-03T19:19:44.131Z,92771.06
2022-08-03T19:25:02.288Z,92779.00
2022-08-03T19:27:31.129Z,92780.59
2022-08-03T19:30:03.762Z,92781.41
2022-08-03T19:32:33.595Z,92786.16
2022-08-03T19:35:04.415Z,92789.16
2022-08-03T19:37:38.304Z,92784.91
2022-08-03T19:40:10.901Z,92788.97
2022-08-03T19:42:44.377Z,92798.03
2022-08-03T19:45:15.419Z,92793.56
2022-08-03T19:47:51.364Z,92791.41
2022-08-03T19:50:19.949Z,92797.34
2022-08-03T19:52:48.189Z,92795.34
2022-08-03T19:55:17.651Z,92796.28
2022-08-03T19:57:49.062Z,92797.56
2022-08-03T20:00:19.549Z,92802.94
2022-08-03T20:02:47.266Z,92799.38
2022-08-03T20:05:18.419Z,92803.47
2022-08-03T20:07:47.618Z,92803.84
2022-08-03T20:10:16.576Z,92800.56
2022-08-03T20:12:44.879Z,92803.47
2022-08-03T20:15:11.638Z,92800.22
2022-08-03T20:17:54.849Z,92803.16
2022-08-03T20:20:33.413Z,92796.78
2022-08-03T20:23:06.990Z,92801.94
2022-08-03T20:25:39.530Z,92804.81
2022-08-03T20:28:30.650Z,92804.66
2022-08-03T20:30:57.605Z,92809.25
2022-08-03T20:33:27.710Z,92810.56
2022-08-03T20:36:12.505Z,92805.09
2022-08-03T20:38:47.098Z,92806.16
2022-08-03T20:41:15.533Z,92801.72
2022-08-03T20:43:42.446Z,92803.56
2022-08-03T20:46:32.078Z,92797.75
2022-08-03T20:48:57.263Z,92799.13
2022-08-03T20:51:50.627Z,92806.28
2022-08-03T20:54:29.796Z,92813.47
2022-08-03T20:57:04.354Z,92813.28
2022-08-03T20:59:46.931Z,92813.53
2022-08-03T21:02:39.857Z,92810.41
2022-08-03T21:05:09.320Z,92807.06
2022-08-03T21:08:04.836Z,92815.25
2022-08-03T21:10:33.563Z,92812.88
2022-08-03T21:13:10.856Z,92778.72
2022-08-03T21:16:11.593Z,92807.94
2022-08-03T21:18:44.841Z,92803.47
2022-08-03T21:21:16.356Z,92811.31
2022-08-03T21:23:47.781Z,92805.50
2022-08-03T21:26:20.896Z,92800.38
2022-08-03T21:28:52.068Z,92804.66
2022-08-03T21:31:24.767Z,92798.28
2022-08-03T21:34:05.261Z,92797.75
2022-08-03T21:36:34.441Z,92799.97
2022-08-03T21:39:02.859Z,92791.63
2022-08-03T21:41:32.299Z,92787.94
2022-08-03T21:44:00.337Z,92800.69
2022-08-03T21:46:30.274Z,92796.75
2022-08-03T21:50:07.079Z,92784.72
2022-08-03T21:51:50.466Z,92790.16
2022-08-03T21:54:20.092Z,92788.50
2022-08-03T21:56:48.298Z,92790.59
2022-08-03T21:59:20.742Z,92785.78
2022-08-03T22:01:49.397Z,92790.38
2022-08-03T22:04:42.671Z,92788.81
2022-08-03T22:07:09.572Z,92792.56
2022-08-03T22:09:36.906Z,92789.22
2022-08-03T22:12:04.218Z,92791.44
2022-08-03T22:14:32.919Z,92792.75
2022-08-03T22:17:00.312Z,92799.84
2022-08-03T22:19:26.921Z,92808.38
2022-08-03T22:21:54.443Z,92802.94
2022-08-03T22:24:24.130Z,92808.75
2022-08-03T22:27:09.939Z,92801.63
2022-08-03T22:29:36.921Z,92800.06
2022-08-03T22:32:03.818Z,92811.63
2022-08-03T22:34:30.895Z,92806.34
2022-08-03T22:37:02.650Z,92800.09
2022-08-03T22:39:30.192Z,92800.59
2022-08-03T22:41:58.950Z,92795.25
2022-08-03T22:44:29.544Z,92794.34
2022-08-03T22:46:56.452Z,92790.03
2022-08-03T22:49:23.679Z,92799.19
2022-08-03T22:51:53.809Z,92801.97
2022-08-03T22:54:20.876Z,92802.47
2022-08-03T22:56:47.727Z,92802.03
2022-08-03T22:59:40.370Z,92809.09
2022-08-03T23:02:20.676Z,92802.56
2022-08-03T23:04:54.975Z,92806.19
2022-08-03T23:07:30.159Z,92807.63
2022-08-03T23:09:58.128Z,92811.09
2022-08-03T23:12:25.296Z,92808.25
2022-08-03T23:14:55.233Z,92810.03
2022-08-03T23:17:27.104Z,92819.78
2022-08-03T23:19:55.107Z,92813.06
2022-08-03T23:22:30.222Z,92819.38
2022-08-03T23:24:59.220Z,92815.09
2022-08-03T23:27:27.958Z,92817.63
2022-08-03T23:29:58.332Z,92816.56
2022-08-03T23:32:29.937Z,92815.81
2022-08-03T23:35:18.463Z,92817.56
2022-08-03T23:38:10.737Z,92813.53
2022-08-03T23:40:33.474Z,92814.50
2022-08-03T23:43:01.647Z,92812.47
2022-08-03T23:45:31.163Z,92815.78
2022-08-03T23:47:57.877Z,92812.22
2022-08-03T23:50:24.550Z,92816.75
2022-08-03T23:53:09.399Z,92812.53
2022-08-03T23:55:39.002Z,92811.44
2022-08-03T23:58:20.862Z,92818.81
